createdAt,value
2024-01-31T00:02:45.635Z,20.35
2024-01-31T00:06:02.855Z,20.40
2024-01-31T00:09:20.067Z,20.50
2024-01-31T00:12:37.364Z,21.33
2024-01-31T00:15:55.016Z,21.28
2024-01-31T00:19:12.994Z,21.90
2024-01-31T00:22:30.556Z,19.38
2024-01-31T00:25:48.176Z,21.80
2024-01-31T00:29:05.480Z,22.50
2024-01-31T00:32:22.930Z,25.50
2024-01-31T00:35:40.065Z,23.68
2024-01-31T00:38:57.683Z,25.53
2024-01-31T00:42:15.584Z,24.35
2024-01-31T00:45:36.118Z,26.00
2024-01-31T00:48:53.318Z,24.70
2024-01-31T00:52:11.534Z,24.15
2024-01-31T00:55:29.457Z,25.03
2024-01-31T00:58:47.426Z,26.45
2024-01-31T01:02:05.224Z,24.80
2024-01-31T01:05:22.544Z,24.78
2024-01-31T01:08:39.778Z,24.28
2024-01-31T01:11:56.969Z,24.05
2024-01-31T01:15:18.386Z,24.93
2024-01-31T01:18:35.554Z,24.83
2024-01-31T01:21:53.355Z,25.05
2024-01-31T01:25:11.092Z,23.80
2024-01-31T01:28:28.495Z,24.78
2024-01-31T01:31:46.078Z,24.58
2024-01-31T01:35:03.596Z,22.93
2024-01-31T01:38:20.669Z,24.05
2024-01-31T01:41:37.890Z,22.95
2024-01-31T01:44:55.451Z,24.13
2024-01-31T01:48:13.520Z,24.40
2024-01-31T01:51:32.482Z,23.65
2024-01-31T01:54:50.107Z,23.88
2024-01-31T01:58:07.628Z,25.70
2024-01-31T02:01:24.914Z,23.70
2024-01-31T02:04:43.366Z,23.35
2024-01-31T02:08:00.761Z,22.83
2024-01-31T02:11:18.183Z,21.85
2024-01-31T02:14:35.420Z,22.63
2024-01-31T02:17:52.912Z,21.70
2024-01-31T02:21:10.704Z,20.95
2024-01-31T02:24:27.966Z,21.25
2024-01-31T02:27:45.169Z,21.35
2024-01-31T02:31:04.298Z,20.65
2024-01-31T02:34:21.856Z,19.65
2024-01-31T02:37:39.396Z,19.95
2024-01-31T02:40:56.861Z,18.78
2024-01-31T02:44:14.341Z,19.15
2024-01-31T02:47:31.751Z,19.08
2024-01-31T02:50:49.211Z,18.70
2024-01-31T02:54:06.450Z,19.55
2024-01-31T02:57:23.880Z,19.28
2024-01-31T03:00:41.228Z,18.68
2024-01-31T03:03:58.703Z,19.60
2024-01-31T03:07:16.485Z,18.68
2024-01-31T03:10:34.727Z,18.90
2024-01-31T03:13:54.253Z,19.05
2024-01-31T03:17:12.220Z,18.25
2024-01-31T03:20:29.424Z,18.48
2024-01-31T03:23:47.605Z,18.55
2024-01-31T03:27:04.961Z,17.60
2024-01-31T03:30:23.838Z,18.63
2024-01-31T03:33:41.377Z,19.58
2024-01-31T03:36:58.828Z,19.53
2024-01-31T03:40:19.174Z,19.93
2024-01-31T03:43:36.508Z,18.50
2024-01-31T03:46:54.669Z,20.30
2024-01-31T03:50:13.538Z,19.55
2024-01-31T03:53:30.847Z,19.55
2024-01-31T03:56:48.680Z,18.40
2024-01-31T04:00:07.574Z,18.45
2024-01-31T04:03:25.090Z,19.28
2024-01-31T04:06:42.557Z,19.68
2024-01-31T04:09:59.777Z,20.73
2024-01-31T04:13:17.587Z,20.15
2024-01-31T04:16:35.226Z,19.08
2024-01-31T04:19:52.614Z,19.35
2024-01-31T04:23:09.893Z,18.73
2024-01-31T04:26:27.290Z,18.90
2024-01-31T04:29:45.885Z,19.85
2024-01-31T04:33:05.318Z,20.65
2024-01-31T04:36:22.859Z,19.75
2024-01-31T04:39:41.240Z,19.15
2024-01-31T04:42:58.418Z,20.73
2024-01-31T04:46:17.688Z,21.23
2024-01-31T04:49:35.436Z,21.88
2024-01-31T04:52:52.832Z,21.10
2024-01-31T04:56:10.957Z,21.63
2024-01-31T04:59:28.270Z,21.63
2024-01-31T05:02:45.511Z,22.18
2024-01-31T05:06:03.296Z,41.83
2024-01-31T05:09:21.520Z,23.08
2024-01-31T05:12:38.948Z,21.53
2024-01-31T05:15:56.747Z,23.30
2024-01-31T05:19:14.344Z,23.18
2024-01-31T05:22:32.678Z,20.48
2024-01-31T05:25:50.616Z,22.88
2024-01-31T05:29:07.943Z,21.03
2024-01-31T05:32:25.092Z,21.45
2024-01-31T05:35:42.539Z,20.85
2024-01-31T05:39:00.071Z,20.60
2024-01-31T05:42:17.454Z,20.50
2024-01-31T05:45:35.911Z,18.73
2024-01-31T05:48:54.089Z,19.53
2024-01-31T05:52:12.555Z,19.50
2024-01-31T05:55:30.047Z,21.05
2024-01-31T05:58:47.674Z,21.08
2024-01-31T06:02:05.784Z,19.93
2024-01-31T06:05:23.538Z,20.83
2024-01-31T06:08:40.694Z,22.00
2024-01-31T06:15:15.618Z,21.88
2024-01-31T06:18:34.921Z,19.88
2024-01-31T06:21:52.235Z,22.00
2024-01-31T06:25:10.485Z,21.15
2024-01-31T06:28:28.428Z,28.80
2024-01-31T06:31:48.681Z,22.98
2024-01-31T06:35:06.671Z,24.33
2024-01-31T06:38:24.500Z,23.85
2024-01-31T06:41:42.126Z,21.88
2024-01-31T06:44:59.968Z,23.70
2024-01-31T06:48:18.332Z,24.20
2024-01-31T06:51:36.135Z,24.85
2024-01-31T06:54:53.392Z,23.00
2024-01-31T06:58:11.297Z,22.95
2024-01-31T07:01:28.709Z,23.43
2024-01-31T07:04:46.150Z,22.38
2024-01-31T07:08:03.813Z,22.90
2024-01-31T07:11:21.375Z,22.18
2024-01-31T07:14:38.917Z,22.68
2024-01-31T07:17:57.485Z,23.80
2024-01-31T07:21:17.761Z,22.98
2024-01-31T07:24:36.068Z,24.80
2024-01-31T07:27:53.390Z,22.05
2024-01-31T07:31:11.310Z,23.65
2024-01-31T07:34:28.820Z,23.83
2024-01-31T07:37:47.100Z,23.10
2024-01-31T07:41:04.339Z,24.33
2024-01-31T07:44:22.071Z,24.33
2024-01-31T07:47:39.482Z,25.58
2024-01-31T07:50:57.921Z,26.10
2024-01-31T07:54:15.882Z,26.18
2024-01-31T07:57:33.518Z,26.98
2024-01-31T08:00:50.802Z,24.03
2024-01-31T08:04:09.582Z,25.45
2024-01-31T08:07:27.342Z,26.03
2024-01-31T08:10:45.121Z,24.30
2024-01-31T08:14:02.805Z,25.73
2024-01-31T08:17:20.254Z,25.50
2024-01-31T08:20:37.790Z,25.45
2024-01-31T08:23:55.990Z,26.63
2024-01-31T08:27:13.839Z,24.88
2024-01-31T08:30:31.310Z,25.05
2024-01-31T08:33:49.647Z,25.75
2024-01-31T08:37:07.661Z,26.65
2024-01-31T08:40:25.798Z,24.68
2024-01-31T08:43:43.866Z,25.75
2024-01-31T08:47:16.736Z,27.15
2024-01-31T08:50:23.228Z,26.63
2024-01-31T08:53:41.060Z,26.60
2024-01-31T08:56:58.837Z,26.78
2024-01-31T09:00:20.127Z,27.63
2024-01-31T09:03:37.950Z,26.18
2024-01-31T09:06:55.964Z,26.15
2024-01-31T09:10:15.752Z,26.78
2024-01-31T09:13:33.208Z,25.45
2024-01-31T09:16:50.620Z,24.28
2024-01-31T09:20:08.674Z,26.60
2024-01-31T09:23:26.391Z,25.53
2024-01-31T09:26:44.470Z,27.18
2024-01-31T09:30:02.282Z,29.08
2024-01-31T09:33:20.095Z,26.93
2024-01-31T09:36:37.921Z,27.33
2024-01-31T09:39:57.602Z,27.85
2024-01-31T09:43:15.564Z,27.48
2024-01-31T09:46:34.472Z,26.05
2024-01-31T09:49:52.368Z,26.73
2024-01-31T09:53:12.137Z,26.80
2024-01-31T09:56:34.066Z,26.90
2024-01-31T09:59:52.069Z,26.75
2024-01-31T10:03:11.668Z,27.95
2024-01-31T10:06:29.902Z,27.55
2024-01-31T10:09:47.833Z,28.55
2024-01-31T10:13:06.350Z,27.00
2024-01-31T10:16:24.925Z,27.13
2024-01-31T10:19:43.218Z,27.90
2024-01-31T10:23:01.968Z,27.75
2024-01-31T10:26:21.058Z,27.18
2024-01-31T10:29:39.570Z,26.13
2024-01-31T10:32:57.802Z,27.45
2024-01-31T10:39:36.780Z,25.08
2024-01-31T10:42:56.374Z,28.33
2024-01-31T10:46:14.739Z,28.30
2024-01-31T10:49:32.669Z,28.65
2024-01-31T10:52:52.133Z,28.15
2024-01-31T10:56:11.641Z,27.40
2024-01-31T10:59:30.338Z,26.48
2024-01-31T11:02:49.693Z,28.28
2024-01-31T11:06:08.337Z,29.58
2024-01-31T11:09:32.483Z,28.08
2024-01-31T11:12:50.562Z,28.38
2024-01-31T11:16:08.466Z,26.85
2024-01-31T11:19:29.654Z,28.95
2024-01-31T11:22:48.015Z,27.85
2024-01-31T11:26:07.609Z,26.90
2024-01-31T11:29:25.986Z,28.10
2024-01-31T11:32:44.017Z,28.48
2024-01-31T11:36:01.770Z,26.00
2024-01-31T11:39:19.708Z,26.95
2024-01-31T11:42:38.098Z,26.05
2024-01-31T11:45:56.632Z,26.15
2024-01-31T11:49:15.904Z,25.58
2024-01-31T11:52:33.888Z,26.03
2024-01-31T11:55:53.230Z,26.30
2024-01-31T11:59:11.743Z,25.85
2024-01-31T12:02:29.556Z,25.58
2024-01-31T12:05:48.114Z,26.05
2024-01-31T12:09:07.036Z,25.83
2024-01-31T12:12:25.363Z,27.78
2024-01-31T12:15:43.030Z,28.05
2024-01-31T12:19:10.929Z,31.20
2024-01-31T12:22:29.880Z,30.98
2024-01-31T12:25:47.284Z,28.93
2024-01-31T12:29:08.227Z,28.00
2024-01-31T12:32:26.199Z,27.68
2024-01-31T12:35:44.081Z,27.00
2024-01-31T12:39:02.113Z,28.23
2024-01-31T12:42:20.472Z,29.05
2024-01-31T12:45:39.826Z,29.53
2024-01-31T12:48:57.820Z,27.38
2024-01-31T12:52:17.486Z,26.58
2024-01-31T12:55:35.298Z,27.98
2024-01-31T12:58:53.377Z,30.68
2024-01-31T13:02:11.617Z,32.03
2024-01-31T13:05:29.612Z,29.98
2024-01-31T13:08:48.105Z,31.08
2024-01-31T13:12:09.860Z,31.00
2024-01-31T13:15:27.596Z,30.68
2024-01-31T13:18:46.846Z,32.33
2024-01-31T13:22:04.635Z,32.03
2024-01-31T13:25:23.340Z,32.35
2024-01-31T13:28:41.512Z,32.55
2024-01-31T13:31:59.320Z,30.15
2024-01-31T13:35:20.408Z,31.33
2024-01-31T13:38:38.664Z,30.98
2024-01-31T13:41:57.984Z,32.15
2024-01-31T13:45:18.458Z,32.43
2024-01-31T13:48:36.564Z,30.95
2024-01-31T13:51:54.986Z,32.55
2024-01-31T13:55:14.417Z,30.53
2024-01-31T13:58:32.421Z,32.90
2024-01-31T14:01:50.620Z,32.38
2024-01-31T14:05:09.145Z,31.30
2024-01-31T14:08:27.619Z,32.13
2024-01-31T14:11:46.031Z,32.78
2024-01-31T14:15:04.617Z,35.00
2024-01-31T14:18:22.766Z,35.18
2024-01-31T14:21:40.925Z,35.18
2024-01-31T14:24:59.317Z,36.33
2024-01-31T14:28:17.556Z,35.23
2024-01-31T14:31:36.065Z,37.45
2024-01-31T14:34:54.460Z,36.13
2024-01-31T14:38:12.004Z,38.15
2024-01-31T14:41:29.655Z,38.68
2024-01-31T14:44:47.670Z,38.70
2024-01-31T14:48:05.784Z,38.13
2024-01-31T14:51:23.653Z,39.18
2024-01-31T14:54:41.625Z,38.33
2024-01-31T14:58:00.596Z,39.70
2024-01-31T15:01:18.370Z,40.30
2024-01-31T15:04:36.838Z,41.55
2024-01-31T15:07:55.050Z,38.75
2024-01-31T15:11:15.458Z,40.73
2024-01-31T15:14:33.617Z,38.28
2024-01-31T15:17:51.049Z,39.30
2024-01-31T15:21:09.539Z,41.13
2024-01-31T15:24:27.660Z,42.10
2024-01-31T15:27:47.019Z,40.68
2024-01-31T15:31:05.582Z,40.18
2024-01-31T15:34:23.398Z,39.60
2024-01-31T15:37:42.205Z,43.68
2024-01-31T15:41:00.153Z,44.00
2024-01-31T15:44:17.963Z,45.85
2024-01-31T15:47:37.547Z,44.53
2024-01-31T15:50:55.349Z,46.75
2024-01-31T15:54:14.682Z,44.65
2024-01-31T15:57:32.676Z,44.13
2024-01-31T16:00:50.704Z,44.73
2024-01-31T16:04:09.893Z,44.78
2024-01-31T16:07:30.120Z,44.70
2024-01-31T16:10:47.931Z,44.55
2024-01-31T16:14:06.078Z,44.70
2024-01-31T16:17:23.912Z,45.13
2024-01-31T16:20:43.720Z,44.98
2024-01-31T16:24:01.862Z,45.35
2024-01-31T16:27:19.771Z,44.70
2024-01-31T16:30:37.439Z,46.00
2024-01-31T16:33:55.257Z,45.75
2024-01-31T16:37:12.830Z,45.10
2024-01-31T16:40:31.084Z,44.45
2024-01-31T16:43:49.865Z,45.18
2024-01-31T16:47:08.413Z,46.35
2024-01-31T16:50:27.355Z,47.98
2024-01-31T16:53:45.448Z,46.70
2024-01-31T16:57:05.501Z,49.80
2024-01-31T17:00:26.258Z,47.08
2024-01-31T17:03:44.594Z,48.13
2024-01-31T17:07:03.120Z,48.48
2024-01-31T17:10:22.079Z,49.28
2024-01-31T17:13:39.960Z,49.50
2024-01-31T17:16:58.686Z,48.88
2024-01-31T17:20:21.191Z,49.63
2024-01-31T17:23:39.482Z,52.48
2024-01-31T17:26:57.709Z,49.08
2024-01-31T17:30:18.508Z,48.63
2024-01-31T17:36:54.544Z,49.88
2024-01-31T17:40:14.072Z,47.03
2024-01-31T17:43:32.062Z,51.25
2024-01-31T17:46:49.933Z,51.30
2024-01-31T17:50:08.497Z,50.35
2024-01-31T17:53:26.748Z,50.28
2024-01-31T17:56:52.429Z,49.00
2024-01-31T18:00:11.022Z,50.45
2024-01-31T18:03:29.338Z,49.63
2024-01-31T18:06:48.197Z,51.90
2024-01-31T18:10:06.321Z,50.08
2024-01-31T18:13:24.160Z,51.68
2024-01-31T18:16:42.113Z,49.53
2024-01-31T18:20:00.485Z,50.28
2024-01-31T18:23:19.537Z,48.85
2024-01-31T18:26:37.570Z,49.33
2024-01-31T18:29:56.731Z,49.83
2024-01-31T18:33:15.075Z,47.78
2024-01-31T18:36:33.241Z,47.35
2024-01-31T18:39:51.309Z,49.80
2024-01-31T18:43:09.530Z,46.80
2024-01-31T18:46:28.005Z,50.18
2024-01-31T18:49:45.946Z,47.83
2024-01-31T18:53:03.949Z,46.80
2024-01-31T18:56:23.997Z,45.98
2024-01-31T18:59:44.440Z,48.35
2024-01-31T19:03:02.502Z,48.13
2024-01-31T19:06:20.909Z,48.55
2024-01-31T19:09:39.035Z,48.30
2024-01-31T19:12:57.797Z,49.30
2024-01-31T19:16:16.514Z,50.70
2024-01-31T19:19:34.975Z,50.48
2024-01-31T19:22:58.621Z,50.95
2024-01-31T19:26:16.986Z,49.43
2024-01-31T19:29:35.586Z,50.83
2024-01-31T19:32:54.091Z,53.70
2024-01-31T19:36:13.006Z,53.00
2024-01-31T19:39:31.551Z,53.88
2024-01-31T19:42:50.439Z,53.85
2024-01-31T19:46:09.154Z,55.18
2024-01-31T19:49:28.026Z,57.68
2024-01-31T19:52:46.660Z,57.73
2024-01-31T19:56:05.272Z,73.38
2024-01-31T19:59:24.034Z,63.53
2024-01-31T20:02:42.565Z,60.45
2024-01-31T20:06:01.029Z,63.88
2024-01-31T20:09:20.192Z,64.18
2024-01-31T20:12:38.945Z,60.78
2024-01-31T20:15:57.962Z,60.53
2024-01-31T20:19:16.621Z,63.25
2024-01-31T20:22:37.070Z,67.58
2024-01-31T20:25:55.954Z,67.60
2024-01-31T20:29:15.207Z,65.70
2024-01-31T20:32:34.122Z,67.30
2024-01-31T20:35:57.737Z,68.03
2024-01-31T20:39:16.875Z,66.68
2024-01-31T20:42:35.033Z,66.00
2024-01-31T20:45:53.532Z,63.98
2024-01-31T20:49:13.397Z,66.55
2024-01-31T20:52:31.798Z,62.75
2024-01-31T20:55:50.370Z,66.15
2024-01-31T20:59:08.971Z,64.78
2024-01-31T21:02:26.971Z,65.85
2024-01-31T21:05:45.843Z,65.65
2024-01-31T21:09:04.262Z,61.60
2024-01-31T21:12:24.469Z,59.65
2024-01-31T21:15:43.013Z,61.45
2024-01-31T21:19:01.610Z,60.10
2024-01-31T21:22:21.378Z,61.35
2024-01-31T21:25:40.142Z,61.00
2024-01-31T21:28:59.170Z,60.73
2024-01-31T21:32:18.588Z,61.33
2024-01-31T21:35:37.182Z,62.48
2024-01-31T21:38:56.799Z,67.15
2024-01-31T21:42:16.408Z,62.58
2024-01-31T21:45:38.076Z,61.43
2024-01-31T21:48:57.150Z,61.10
2024-01-31T21:52:15.887Z,61.10
2024-01-31T21:55:36.620Z,63.73
2024-01-31T21:58:55.232Z,62.03
2024-01-31T22:02:14.721Z,60.85
2024-01-31T22:05:33.837Z,62.85
2024-01-31T22:08:52.461Z,56.43
2024-01-31T22:12:12.449Z,62.70
2024-01-31T22:15:31.149Z,63.20
2024-01-31T22:18:50.746Z,61.03
2024-01-31T22:22:09.181Z,65.83
2024-01-31T22:25:27.812Z,62.98
2024-01-31T22:28:46.325Z,63.78
2024-01-31T22:32:07.051Z,71.83
2024-01-31T22:35:25.409Z,68.10
2024-01-31T22:38:44.428Z,68.28
2024-01-31T22:42:05.456Z,64.05
2024-01-31T22:45:24.537Z,65.80
2024-01-31T22:48:43.111Z,65.13
2024-01-31T22:52:02.210Z,63.90
2024-01-31T22:55:21.769Z,68.05
2024-01-31T22:58:39.770Z,65.00
2024-01-31T23:02:00.444Z,63.35
2024-01-31T23:05:18.956Z,62.15
2024-01-31T23:08:37.458Z,65.48
2024-01-31T23:11:56.357Z,61.43
2024-01-31T23:15:16.649Z,65.93
2024-01-31T23:18:35.322Z,66.90
2024-01-31T23:21:54.296Z,68.08
2024-01-31T23:25:13.409Z,64.53
2024-01-31T23:28:31.985Z,62.23
2024-01-31T23:31:50.460Z,67.10
2024-01-31T23:35:08.230Z,58.48
2024-01-31T23:38:28.829Z,68.13
2024-01-31T23:41:46.989Z,66.55
2024-01-31T23:45:05.570Z,65.05
2024-01-31T23:48:24.344Z,66.13
2024-01-31T23:51:42.608Z,66.48
2024-01-31T23:55:01.271Z,65.33
2024-01-31T23:58:19.497Z,66.93
